Terminal Aerodrome Forecast
Issued by NWS Norman, OK

Home | Current Version | Previous Version | Text Only | Print | Product List | Glossary On
Versions: 1 2 3 4 5 6 7 8 9 10 11 12 13 14 15 16 17 18 19 20 21 22 23 24 25
000
FTUS44 KOUN 301138
TAFOKC
TAF
KOKC 301138Z 3012/3112 08007KT P6SM OVC200
     FM302200 13008KT P6SM OVC100
     FM310600 15011KT P6SM OVC050 PROB30 3108/3112 -RA=

USA.gov is the U.S. government's official web portal to all federal, state and local government web resources and services.